Terminal Aerodrome Forecast
Issued by NWS Kansas City/Pleasant Hill, MO

Home | Current Version | Previous Version | Text Only | Print | Product List | Glossary On
Versions: 1 2 3 4 5 6 7 8 9 10 11 12 13 14
000
FTUS43 KEAX 022300
TAFMCI
TAF
KMCI 022320Z 0300/0324 18011KT P6SM FEW120
     FM031400 19017G25KT P6SM SCT090=

USA.gov is the U.S. government's official web portal to all federal, state and local government web resources and services.